sensor_id;sensor_type;location;lat;lon;timestamp;P1;durP1;ratioP1;P2;durP2;ratioP2
18170;SDS011;9210;48.358;10.902;2023-04-07T00:02:14;17.00;;;8.23;;
18170;SDS011;9210;48.358;10.902;2023-04-07T00:04:43;14.43;;;8.03;;
18170;SDS011;9210;48.358;10.902;2023-04-07T00:07:11;17.00;;;7.60;;
18170;SDS011;9210;48.358;10.902;2023-04-07T00:09:40;14.50;;;7.60;;
18170;SDS011;9210;48.358;10.902;2023-04-07T00:12:09;15.20;;;7.43;;
18170;SDS011;9210;48.358;10.902;2023-04-07T00:14:38;12.93;;;7.00;;
18170;SDS011;9210;48.358;10.902;2023-04-07T00:17:06;15.13;;;7.17;;
18170;SDS011;9210;48.358;10.902;2023-04-07T00:19:35;10.90;;;5.87;;
18170;SDS011;9210;48.358;10.902;2023-04-07T00:22:03;12.77;;;5.57;;
18170;SDS011;9210;48.358;10.902;2023-04-07T00:24:32;9.23;;;5.23;;
18170;SDS011;9210;48.358;10.902;2023-04-07T00:27:00;11.97;;;6.03;;
18170;SDS011;9210;48.358;10.902;2023-04-07T00:29:30;9.37;;;4.93;;
18170;SDS011;9210;48.358;10.902;2023-04-07T00:31:58;8.47;;;4.50;;
18170;SDS011;9210;48.358;10.902;2023-04-07T00:34:27;10.30;;;4.90;;
18170;SDS011;9210;48.358;10.902;2023-04-07T00:36:55;9.47;;;4.80;;
18170;SDS011;9210;48.358;10.902;2023-04-07T00:39:24;11.80;;;4.60;;
18170;SDS011;9210;48.358;10.902;2023-04-07T00:41:54;10.03;;;4.40;;
18170;SDS011;9210;48.358;10.902;2023-04-07T00:44:23;7.73;;;3.93;;
18170;SDS011;9210;48.358;10.902;2023-04-07T00:46:53;6.40;;;3.50;;
18170;SDS011;9210;48.358;10.902;2023-04-07T00:49:21;6.20;;;3.30;;
18170;SDS011;9210;48.358;10.902;2023-04-07T00:51:49;6.20;;;3.23;;
18170;SDS011;9210;48.358;10.902;2023-04-07T00:54:19;5.77;;;3.03;;
18170;SDS011;9210;48.358;10.902;2023-04-07T00:56:47;6.10;;;3.13;;
18170;SDS011;9210;48.358;10.902;2023-04-07T00:59:16;6.23;;;2.97;;
18170;SDS011;9210;48.358;10.902;2023-04-07T01:01:45;6.80;;;3.20;;
18170;SDS011;9210;48.358;10.902;2023-04-07T01:04:19;5.53;;;2.97;;
18170;SDS011;9210;48.358;10.902;2023-04-07T01:06:50;4.67;;;2.63;;
18170;SDS011;9210;48.358;10.902;2023-04-07T01:09:29;5.70;;;2.77;;
18170;SDS011;9210;48.358;10.902;2023-04-07T01:12:04;4.67;;;2.97;;
18170;SDS011;9210;48.358;10.902;2023-04-07T01:14:39;5.73;;;2.77;;
18170;SDS011;9210;48.358;10.902;2023-04-07T01:17:33;4.80;;;2.87;;
18170;SDS011;9210;48.358;10.902;2023-04-07T01:20:05;5.03;;;2.57;;
18170;SDS011;9210;48.358;10.902;2023-04-07T01:22:36;4.83;;;3.07;;
18170;SDS011;9210;48.358;10.902;2023-04-07T01:27:53;6.13;;;3.00;;
18170;SDS011;9210;48.358;10.902;2023-04-07T01:30:26;5.63;;;2.90;;
18170;SDS011;9210;48.358;10.902;2023-04-07T01:32:57;5.30;;;3.40;;
18170;SDS011;9210;48.358;10.902;2023-04-07T01:35:26;7.93;;;4.00;;
18170;SDS011;9210;48.358;10.902;2023-04-07T01:37:56;9.53;;;4.10;;
18170;SDS011;9210;48.358;10.902;2023-04-07T01:40:26;8.47;;;4.30;;
18170;SDS011;9210;48.358;10.902;2023-04-07T01:42:55;8.00;;;4.10;;
18170;SDS011;9210;48.358;10.902;2023-04-07T01:45:25;7.20;;;3.80;;
18170;SDS011;9210;48.358;10.902;2023-04-07T01:47:54;7.73;;;4.20;;
18170;SDS011;9210;48.358;10.902;2023-04-07T01:50:23;8.40;;;4.27;;
18170;SDS011;9210;48.358;10.902;2023-04-07T01:52:52;7.57;;;3.97;;
18170;SDS011;9210;48.358;10.902;2023-04-07T01:55:21;9.47;;;4.47;;
18170;SDS011;9210;48.358;10.902;2023-04-07T01:58:02;8.17;;;4.67;;
18170;SDS011;9210;48.358;10.902;2023-04-07T02:00:34;7.90;;;4.20;;
18170;SDS011;9210;48.358;10.902;2023-04-07T02:03:10;10.13;;;4.83;;
18170;SDS011;9210;48.358;10.902;2023-04-07T02:05:46;8.37;;;4.63;;
18170;SDS011;9210;48.358;10.902;2023-04-07T02:08:16;7.70;;;4.33;;
18170;SDS011;9210;48.358;10.902;2023-04-07T02:10:45;9.60;;;5.07;;
18170;SDS011;9210;48.358;10.902;2023-04-07T02:13:15;7.80;;;4.80;;
18170;SDS011;9210;48.358;10.902;2023-04-07T02:15:48;9.10;;;5.07;;
18170;SDS011;9210;48.358;10.902;2023-04-07T02:18:18;10.63;;;5.53;;
18170;SDS011;9210;48.358;10.902;2023-04-07T02:20:47;9.87;;;5.10;;
18170;SDS011;9210;48.358;10.902;2023-04-07T02:23:17;13.63;;;5.83;;
18170;SDS011;9210;48.358;10.902;2023-04-07T02:25:46;9.23;;;5.37;;
18170;SDS011;9210;48.358;10.902;2023-04-07T02:28:14;8.47;;;5.13;;
18170;SDS011;9210;48.358;10.902;2023-04-07T02:30:44;12.40;;;6.20;;
18170;SDS011;9210;48.358;10.902;2023-04-07T02:33:13;8.97;;;5.60;;
18170;SDS011;9210;48.358;10.902;2023-04-07T02:35:42;9.87;;;5.77;;
18170;SDS011;9210;48.358;10.902;2023-04-07T02:38:11;10.47;;;5.80;;
18170;SDS011;9210;48.358;10.902;2023-04-07T02:40:39;12.60;;;6.50;;
18170;SDS011;9210;48.358;10.902;2023-04-07T02:43:07;10.20;;;5.53;;
18170;SDS011;9210;48.358;10.902;2023-04-07T02:45:36;12.00;;;6.43;;
18170;SDS011;9210;48.358;10.902;2023-04-07T02:48:05;10.47;;;6.10;;
18170;SDS011;9210;48.358;10.902;2023-04-07T02:50:36;12.63;;;6.50;;
18170;SDS011;9210;48.358;10.902;2023-04-07T02:53:04;10.83;;;6.30;;
18170;SDS011;9210;48.358;10.902;2023-04-07T02:55:33;12.73;;;6.37;;
18170;SDS011;9210;48.358;10.902;2023-04-07T02:58:01;9.57;;;5.90;;
18170;SDS011;9210;48.358;10.902;2023-04-07T03:00:36;11.13;;;6.30;;
18170;SDS011;9210;48.358;10.902;2023-04-07T03:03:26;10.63;;;6.60;;
18170;SDS011;9210;48.358;10.902;2023-04-07T03:06:08;12.53;;;6.97;;
18170;SDS011;9210;48.358;10.902;2023-04-07T03:08:46;12.03;;;6.50;;
18170;SDS011;9210;48.358;10.902;2023-04-07T03:11:14;11.97;;;7.13;;
18170;SDS011;9210;48.358;10.902;2023-04-07T03:13:43;14.43;;;6.70;;
18170;SDS011;9210;48.358;10.902;2023-04-07T03:16:13;15.87;;;7.23;;
18170;SDS011;9210;48.358;10.902;2023-04-07T03:18:55;13.37;;;7.37;;
18170;SDS011;9210;48.358;10.902;2023-04-07T03:21:25;16.50;;;7.57;;
18170;SDS011;9210;48.358;10.902;2023-04-07T03:23:54;16.10;;;7.73;;
18170;SDS011;9210;48.358;10.902;2023-04-07T03:26:22;13.17;;;6.63;;
18170;SDS011;9210;48.358;10.902;2023-04-07T03:28:51;12.13;;;6.23;;
18170;SDS011;9210;48.358;10.902;2023-04-07T03:31:20;11.27;;;6.50;;
18170;SDS011;9210;48.358;10.902;2023-04-07T03:33:51;12.47;;;6.67;;
18170;SDS011;9210;48.358;10.902;2023-04-07T03:36:20;14.17;;;7.13;;
18170;SDS011;9210;48.358;10.902;2023-04-07T03:38:51;14.33;;;6.90;;
18170;SDS011;9210;48.358;10.902;2023-04-07T03:41:19;14.90;;;7.17;;
18170;SDS011;9210;48.358;10.902;2023-04-07T03:43:47;14.93;;;7.93;;
18170;SDS011;9210;48.358;10.902;2023-04-07T03:46:17;14.43;;;7.23;;
18170;SDS011;9210;48.358;10.902;2023-04-07T03:48:46;13.17;;;7.23;;
18170;SDS011;9210;48.358;10.902;2023-04-07T03:51:15;12.07;;;6.70;;
18170;SDS011;9210;48.358;10.902;2023-04-07T03:53:45;11.90;;;6.60;;
18170;SDS011;9210;48.358;10.902;2023-04-07T03:56:32;16.50;;;8.30;;
18170;SDS011;9210;48.358;10.902;2023-04-07T03:59:01;16.20;;;7.57;;
18170;SDS011;9210;48.358;10.902;2023-04-07T04:01:34;17.00;;;7.53;;
18170;SDS011;9210;48.358;10.902;2023-04-07T04:04:08;16.70;;;7.37;;
18170;SDS011;9210;48.358;10.902;2023-04-07T04:06:37;15.23;;;7.30;;
18170;SDS011;9210;48.358;10.902;2023-04-07T04:09:15;12.50;;;7.07;;
18170;SDS011;9210;48.358;10.902;2023-04-07T04:11:47;14.63;;;7.50;;
18170;SDS011;9210;48.358;10.902;2023-04-07T04:14:17;13.47;;;7.10;;
18170;SDS011;9210;48.358;10.902;2023-04-07T04:16:52;11.43;;;6.63;;
18170;SDS011;9210;48.358;10.902;2023-04-07T04:19:31;15.87;;;7.80;;
18170;SDS011;9210;48.358;10.902;2023-04-07T04:22:05;19.30;;;8.57;;
18170;SDS011;9210;48.358;10.902;2023-04-07T04:24:40;14.67;;;7.90;;
18170;SDS011;9210;48.358;10.902;2023-04-07T04:27:10;16.47;;;8.30;;
18170;SDS011;9210;48.358;10.902;2023-04-07T04:29:39;19.03;;;9.53;;
18170;SDS011;9210;48.358;10.902;2023-04-07T04:32:10;19.90;;;9.37;;
18170;SDS011;9210;48.358;10.902;2023-04-07T04:34:42;14.87;;;8.33;;
18170;SDS011;9210;48.358;10.902;2023-04-07T04:37:12;15.57;;;8.53;;
18170;SDS011;9210;48.358;10.902;2023-04-07T04:39:43;15.57;;;7.60;;
18170;SDS011;9210;48.358;10.902;2023-04-07T04:42:16;16.07;;;7.70;;
18170;SDS011;9210;48.358;10.902;2023-04-07T04:44:44;16.97;;;8.27;;
18170;SDS011;9210;48.358;10.902;2023-04-07T04:47:13;18.23;;;8.87;;
18170;SDS011;9210;48.358;10.902;2023-04-07T04:49:42;16.87;;;8.07;;
18170;SDS011;9210;48.358;10.902;2023-04-07T04:52:11;15.83;;;8.37;;
18170;SDS011;9210;48.358;10.902;2023-04-07T04:54:42;16.57;;;8.97;;
18170;SDS011;9210;48.358;10.902;2023-04-07T04:57:11;17.57;;;8.33;;
18170;SDS011;9210;48.358;10.902;2023-04-07T04:59:41;17.40;;;8.30;;
18170;SDS011;9210;48.358;10.902;2023-04-07T05:02:09;15.83;;;8.47;;
18170;SDS011;9210;48.358;10.902;2023-04-07T05:04:38;19.33;;;9.23;;
18170;SDS011;9210;48.358;10.902;2023-04-07T05:07:17;18.43;;;9.47;;
18170;SDS011;9210;48.358;10.902;2023-04-07T05:09:46;17.40;;;8.40;;
18170;SDS011;9210;48.358;10.902;2023-04-07T05:12:17;16.47;;;8.23;;
18170;SDS011;9210;48.358;10.902;2023-04-07T05:14:50;18.70;;;9.30;;
18170;SDS011;9210;48.358;10.902;2023-04-07T05:17:19;19.43;;;9.47;;
18170;SDS011;9210;48.358;10.902;2023-04-07T05:19:48;20.17;;;8.70;;
18170;SDS011;9210;48.358;10.902;2023-04-07T05:22:28;18.20;;;9.37;;
18170;SDS011;9210;48.358;10.902;2023-04-07T05:24:57;16.87;;;8.83;;
18170;SDS011;9210;48.358;10.902;2023-04-07T05:27:26;17.70;;;9.07;;
18170;SDS011;9210;48.358;10.902;2023-04-07T05:30:01;22.70;;;9.53;;
18170;SDS011;9210;48.358;10.902;2023-04-07T05:32:33;16.50;;;8.87;;
18170;SDS011;9210;48.358;10.902;2023-04-07T05:35:08;19.43;;;9.40;;
18170;SDS011;9210;48.358;10.902;2023-04-07T05:37:42;18.03;;;9.03;;
18170;SDS011;9210;48.358;10.902;2023-04-07T05:40:11;19.50;;;8.90;;
18170;SDS011;9210;48.358;10.902;2023-04-07T05:42:40;17.83;;;8.60;;
18170;SDS011;9210;48.358;10.902;2023-04-07T05:45:11;17.43;;;9.40;;
18170;SDS011;9210;48.358;10.902;2023-04-07T05:47:43;17.83;;;9.03;;
18170;SDS011;9210;48.358;10.902;2023-04-07T05:50:13;15.27;;;8.33;;
18170;SDS011;9210;48.358;10.902;2023-04-07T05:52:44;14.27;;;8.20;;
18170;SDS011;9210;48.358;10.902;2023-04-07T05:55:20;19.73;;;9.33;;
18170;SDS011;9210;48.358;10.902;2023-04-07T05:57:50;14.73;;;8.17;;
18170;SDS011;9210;48.358;10.902;2023-04-07T06:00:22;16.10;;;8.20;;
18170;SDS011;9210;48.358;10.902;2023-04-07T06:03:00;15.70;;;7.77;;
18170;SDS011;9210;48.358;10.902;2023-04-07T06:05:36;15.87;;;8.70;;
18170;SDS011;9210;48.358;10.902;2023-04-07T06:08:10;18.90;;;8.70;;
18170;SDS011;9210;48.358;10.902;2023-04-07T06:10:38;16.50;;;8.77;;
18170;SDS011;9210;48.358;10.902;2023-04-07T06:13:07;18.27;;;8.30;;
18170;SDS011;9210;48.358;10.902;2023-04-07T06:15:37;17.57;;;9.00;;
18170;SDS011;9210;48.358;10.902;2023-04-07T06:18:05;17.07;;;9.00;;
18170;SDS011;9210;48.358;10.902;2023-04-07T06:20:34;15.60;;;8.60;;
18170;SDS011;9210;48.358;10.902;2023-04-07T06:23:02;18.03;;;9.07;;
18170;SDS011;9210;48.358;10.902;2023-04-07T06:25:32;19.20;;;9.63;;
18170;SDS011;9210;48.358;10.902;2023-04-07T06:28:00;19.43;;;9.83;;
18170;SDS011;9210;48.358;10.902;2023-04-07T06:30:28;18.67;;;9.70;;
18170;SDS011;9210;48.358;10.902;2023-04-07T06:32:59;17.77;;;9.30;;
18170;SDS011;9210;48.358;10.902;2023-04-07T06:35:27;17.20;;;8.87;;
18170;SDS011;9210;48.358;10.902;2023-04-07T06:37:56;16.57;;;8.67;;
18170;SDS011;9210;48.358;10.902;2023-04-07T06:40:24;17.80;;;9.40;;
18170;SDS011;9210;48.358;10.902;2023-04-07T06:42:53;16.73;;;8.87;;
18170;SDS011;9210;48.358;10.902;2023-04-07T06:45:28;16.83;;;8.60;;
18170;SDS011;9210;48.358;10.902;2023-04-07T06:47:56;16.47;;;8.50;;
18170;SDS011;9210;48.358;10.902;2023-04-07T06:50:26;18.63;;;9.20;;
18170;SDS011;9210;48.358;10.902;2023-04-07T06:52:55;15.87;;;8.87;;
18170;SDS011;9210;48.358;10.902;2023-04-07T06:55:23;16.73;;;8.57;;
18170;SDS011;9210;48.358;10.902;2023-04-07T06:57:52;18.00;;;9.17;;
18170;SDS011;9210;48.358;10.902;2023-04-07T07:00:21;17.63;;;8.87;;
18170;SDS011;9210;48.358;10.902;2023-04-07T07:02:49;15.67;;;8.13;;
18170;SDS011;9210;48.358;10.902;2023-04-07T07:05:18;15.37;;;8.97;;
18170;SDS011;9210;48.358;10.902;2023-04-07T07:07:48;17.87;;;9.50;;
18170;SDS011;9210;48.358;10.902;2023-04-07T07:10:17;14.87;;;8.17;;
18170;SDS011;9210;48.358;10.902;2023-04-07T07:12:47;17.73;;;9.67;;
18170;SDS011;9210;48.358;10.902;2023-04-07T07:15:16;16.53;;;8.83;;
18170;SDS011;9210;48.358;10.902;2023-04-07T07:17:44;16.03;;;9.07;;
18170;SDS011;9210;48.358;10.902;2023-04-07T07:20:13;20.27;;;10.50;;
18170;SDS011;9210;48.358;10.902;2023-04-07T07:22:42;17.90;;;9.63;;
18170;SDS011;9210;48.358;10.902;2023-04-07T07:25:12;17.03;;;9.17;;
18170;SDS011;9210;48.358;10.902;2023-04-07T07:27:40;18.93;;;9.47;;
18170;SDS011;9210;48.358;10.902;2023-04-07T07:30:09;15.43;;;8.90;;
18170;SDS011;9210;48.358;10.902;2023-04-07T07:32:37;19.77;;;9.87;;
18170;SDS011;9210;48.358;10.902;2023-04-07T07:35:06;16.23;;;8.83;;
18170;SDS011;9210;48.358;10.902;2023-04-07T07:37:34;15.67;;;9.10;;
18170;SDS011;9210;48.358;10.902;2023-04-07T07:40:03;16.00;;;9.03;;
18170;SDS011;9210;48.358;10.902;2023-04-07T07:42:33;16.30;;;8.80;;
18170;SDS011;9210;48.358;10.902;2023-04-07T07:45:02;15.43;;;8.80;;
18170;SDS011;9210;48.358;10.902;2023-04-07T07:47:30;16.47;;;9.20;;
18170;SDS011;9210;48.358;10.902;2023-04-07T07:49:59;15.67;;;8.80;;
18170;SDS011;9210;48.358;10.902;2023-04-07T07:52:27;13.40;;;7.90;;
18170;SDS011;9210;48.358;10.902;2023-04-07T07:54:56;11.80;;;7.27;;
18170;SDS011;9210;48.358;10.902;2023-04-07T07:57:24;14.83;;;8.17;;
18170;SDS011;9210;48.358;10.902;2023-04-07T07:59:54;14.73;;;7.57;;
18170;SDS011;9210;48.358;10.902;2023-04-07T08:02:23;14.03;;;7.97;;
18170;SDS011;9210;48.358;10.902;2023-04-07T08:04:56;13.70;;;7.60;;
18170;SDS011;9210;48.358;10.902;2023-04-07T08:07:25;13.13;;;7.43;;
18170;SDS011;9210;48.358;10.902;2023-04-07T08:09:53;13.77;;;6.90;;
18170;SDS011;9210;48.358;10.902;2023-04-07T08:12:22;11.23;;;6.73;;
18170;SDS011;9210;48.358;10.902;2023-04-07T08:14:50;11.47;;;6.23;;
18170;SDS011;9210;48.358;10.902;2023-04-07T08:17:20;12.17;;;7.03;;
18170;SDS011;9210;48.358;10.902;2023-04-07T08:19:48;12.13;;;7.53;;
18170;SDS011;9210;48.358;10.902;2023-04-07T08:22:17;12.10;;;7.10;;
18170;SDS011;9210;48.358;10.902;2023-04-07T08:24:46;13.23;;;6.83;;
18170;SDS011;9210;48.358;10.902;2023-04-07T08:27:14;11.43;;;7.40;;
18170;SDS011;9210;48.358;10.902;2023-04-07T08:29:43;11.47;;;7.00;;
18170;SDS011;9210;48.358;10.902;2023-04-07T08:32:12;11.23;;;6.60;;
18170;SDS011;9210;48.358;10.902;2023-04-07T08:34:41;9.63;;;6.30;;
18170;SDS011;9210;48.358;10.902;2023-04-07T08:37:10;11.30;;;6.80;;
18170;SDS011;9210;48.358;10.902;2023-04-07T08:39:38;9.40;;;5.70;;
18170;SDS011;9210;48.358;10.902;2023-04-07T08:42:07;11.70;;;6.50;;
18170;SDS011;9210;48.358;10.902;2023-04-07T08:44:35;10.77;;;6.40;;
18170;SDS011;9210;48.358;10.902;2023-04-07T08:47:05;13.17;;;6.60;;
18170;SDS011;9210;48.358;10.902;2023-04-07T08:49:34;10.40;;;6.77;;
18170;SDS011;9210;48.358;10.902;2023-04-07T08:52:05;9.63;;;6.07;;
18170;SDS011;9210;48.358;10.902;2023-04-07T08:54:35;10.57;;;6.67;;
18170;SDS011;9210;48.358;10.902;2023-04-07T08:57:03;12.23;;;6.70;;
18170;SDS011;9210;48.358;10.902;2023-04-07T08:59:32;11.07;;;6.57;;
18170;SDS011;9210;48.358;10.902;2023-04-07T09:02:01;10.10;;;6.27;;
18170;SDS011;9210;48.358;10.902;2023-04-07T09:04:32;9.03;;;5.93;;
18170;SDS011;9210;48.358;10.902;2023-04-07T09:07:01;9.50;;;5.43;;
18170;SDS011;9210;48.358;10.902;2023-04-07T09:09:30;8.50;;;5.30;;
18170;SDS011;9210;48.358;10.902;2023-04-07T09:11:59;10.40;;;6.60;;
18170;SDS011;9210;48.358;10.902;2023-04-07T09:14:27;9.25;;;5.57;;
18170;SDS011;9210;48.358;10.902;2023-04-07T09:16:56;9.07;;;5.30;;
18170;SDS011;9210;48.358;10.902;2023-04-07T09:19:26;9.20;;;5.37;;
18170;SDS011;9210;48.358;10.902;2023-04-07T09:21:56;9.10;;;6.17;;
18170;SDS011;9210;48.358;10.902;2023-04-07T09:24:25;8.60;;;5.63;;
18170;SDS011;9210;48.358;10.902;2023-04-07T09:27:11;10.50;;;6.27;;
18170;SDS011;9210;48.358;10.902;2023-04-07T09:29:43;9.30;;;5.47;;
18170;SDS011;9210;48.358;10.902;2023-04-07T09:32:11;8.93;;;5.60;;
18170;SDS011;9210;48.358;10.902;2023-04-07T09:34:50;8.43;;;5.70;;
18170;SDS011;9210;48.358;10.902;2023-04-07T09:37:25;7.63;;;5.15;;
18170;SDS011;9210;48.358;10.902;2023-04-07T09:39:53;9.30;;;5.55;;
18170;SDS011;9210;48.358;10.902;2023-04-07T09:42:23;9.23;;;5.25;;
18170;SDS011;9210;48.358;10.902;2023-04-07T09:44:52;8.35;;;5.60;;
18170;SDS011;9210;48.358;10.902;2023-04-07T09:47:24;8.15;;;5.80;;
18170;SDS011;9210;48.358;10.902;2023-04-07T09:49:54;9.05;;;5.30;;
18170;SDS011;9210;48.358;10.902;2023-04-07T09:52:25;8.50;;;5.63;;
18170;SDS011;9210;48.358;10.902;2023-04-07T09:55:13;10.43;;;6.27;;
18170;SDS011;9210;48.358;10.902;2023-04-07T09:57:43;9.10;;;5.67;;
18170;SDS011;9210;48.358;10.902;2023-04-07T10:00:12;9.63;;;6.43;;
18170;SDS011;9210;48.358;10.902;2023-04-07T10:02:41;10.80;;;6.00;;
18170;SDS011;9210;48.358;10.902;2023-04-07T10:05:10;10.50;;;6.33;;
18170;SDS011;9210;48.358;10.902;2023-04-07T10:07:38;11.13;;;6.63;;
18170;SDS011;9210;48.358;10.902;2023-04-07T10:10:08;10.67;;;6.17;;
18170;SDS011;9210;48.358;10.902;2023-04-07T10:12:37;12.87;;;6.23;;
18170;SDS011;9210;48.358;10.902;2023-04-07T10:15:08;9.30;;;5.70;;
18170;SDS011;9210;48.358;10.902;2023-04-07T10:17:42;9.27;;;6.47;;
18170;SDS011;9210;48.358;10.902;2023-04-07T10:20:13;12.03;;;6.67;;
18170;SDS011;9210;48.358;10.902;2023-04-07T10:22:42;13.30;;;6.43;;
18170;SDS011;9210;48.358;10.902;2023-04-07T10:25:11;10.77;;;6.40;;
18170;SDS011;9210;48.358;10.902;2023-04-07T10:27:42;13.03;;;6.77;;
18170;SDS011;9210;48.358;10.902;2023-04-07T10:30:17;11.10;;;6.83;;
18170;SDS011;9210;48.358;10.902;2023-04-07T10:32:47;11.07;;;7.10;;
18170;SDS011;9210;48.358;10.902;2023-04-07T10:35:16;11.60;;;6.63;;
18170;SDS011;9210;48.358;10.902;2023-04-07T10:40:28;9.20;;;5.97;;
18170;SDS011;9210;48.358;10.902;2023-04-07T10:42:57;9.60;;;6.07;;
18170;SDS011;9210;48.358;10.902;2023-04-07T10:48:11;11.53;;;6.87;;
18170;SDS011;9210;48.358;10.902;2023-04-07T10:50:39;9.73;;;5.70;;
18170;SDS011;9210;48.358;10.902;2023-04-07T10:53:09;12.63;;;6.63;;
18170;SDS011;9210;48.358;10.902;2023-04-07T10:55:38;10.33;;;6.07;;
18170;SDS011;9210;48.358;10.902;2023-04-07T10:58:16;10.30;;;6.70;;
18170;SDS011;9210;48.358;10.902;2023-04-07T11:03:34;11.60;;;6.37;;
18170;SDS011;9210;48.358;10.902;2023-04-07T11:06:03;16.20;;;6.80;;
18170;SDS011;9210;48.358;10.902;2023-04-07T11:08:31;12.13;;;7.03;;
18170;SDS011;9210;48.358;10.902;2023-04-07T11:11:00;11.63;;;6.77;;
18170;SDS011;9210;48.358;10.902;2023-04-07T11:13:39;12.33;;;7.40;;
18170;SDS011;9210;48.358;10.902;2023-04-07T11:16:08;10.67;;;7.43;;
18170;SDS011;9210;48.358;10.902;2023-04-07T11:18:38;11.63;;;7.20;;
18170;SDS011;9210;48.358;10.902;2023-04-07T11:21:08;10.23;;;6.50;;
18170;SDS011;9210;48.358;10.902;2023-04-07T11:23:37;13.87;;;7.47;;
18170;SDS011;9210;48.358;10.902;2023-04-07T11:26:06;11.30;;;6.83;;
18170;SDS011;9210;48.358;10.902;2023-04-07T11:28:35;11.40;;;6.77;;
18170;SDS011;9210;48.358;10.902;2023-04-07T11:31:11;11.30;;;6.60;;
18170;SDS011;9210;48.358;10.902;2023-04-07T11:33:52;12.83;;;7.90;;
18170;SDS011;9210;48.358;10.902;2023-04-07T11:36:28;14.20;;;8.30;;
18170;SDS011;9210;48.358;10.902;2023-04-07T11:38:57;10.33;;;6.60;;
18170;SDS011;9210;48.358;10.902;2023-04-07T11:41:27;11.60;;;7.03;;
18170;SDS011;9210;48.358;10.902;2023-04-07T11:44:06;11.77;;;7.60;;
18170;SDS011;9210;48.358;10.902;2023-04-07T11:46:35;10.73;;;7.03;;
18170;SDS011;9210;48.358;10.902;2023-04-07T11:49:08;11.47;;;7.27;;
18170;SDS011;9210;48.358;10.902;2023-04-07T11:51:37;10.03;;;7.00;;
18170;SDS011;9210;48.358;10.902;2023-04-07T11:54:06;12.10;;;6.90;;
18170;SDS011;9210;48.358;10.902;2023-04-07T11:56:42;10.97;;;6.67;;
18170;SDS011;9210;48.358;10.902;2023-04-07T11:59:20;12.83;;;7.30;;
18170;SDS011;9210;48.358;10.902;2023-04-07T12:01:49;11.57;;;6.90;;
18170;SDS011;9210;48.358;10.902;2023-04-07T12:04:22;12.50;;;7.60;;
18170;SDS011;9210;48.358;10.902;2023-04-07T12:06:51;10.57;;;7.07;;
18170;SDS011;9210;48.358;10.902;2023-04-07T12:09:27;11.77;;;7.20;;
18170;SDS011;9210;48.358;10.902;2023-04-07T12:11:55;10.80;;;7.50;;
18170;SDS011;9210;48.358;10.902;2023-04-07T12:14:24;11.20;;;6.20;;
18170;SDS011;9210;48.358;10.902;2023-04-07T12:16:53;10.07;;;6.47;;
18170;SDS011;9210;48.358;10.902;2023-04-07T12:19:24;8.60;;;5.70;;
18170;SDS011;9210;48.358;10.902;2023-04-07T12:21:54;9.43;;;6.20;;
18170;SDS011;9210;48.358;10.902;2023-04-07T12:24:22;11.93;;;6.23;;
18170;SDS011;9210;48.358;10.902;2023-04-07T12:26:51;7.70;;;5.47;;
18170;SDS011;9210;48.358;10.902;2023-04-07T12:29:19;10.20;;;6.30;;
18170;SDS011;9210;48.358;10.902;2023-04-07T12:31:48;9.37;;;6.10;;
18170;SDS011;9210;48.358;10.902;2023-04-07T12:34:17;10.13;;;6.70;;
18170;SDS011;9210;48.358;10.902;2023-04-07T12:36:46;9.13;;;5.33;;
18170;SDS011;9210;48.358;10.902;2023-04-07T12:39:15;7.97;;;4.90;;
18170;SDS011;9210;48.358;10.902;2023-04-07T12:41:44;6.63;;;4.50;;
18170;SDS011;9210;48.358;10.902;2023-04-07T12:44:14;8.73;;;4.80;;
18170;SDS011;9210;48.358;10.902;2023-04-07T12:46:42;9.60;;;5.37;;
18170;SDS011;9210;48.358;10.902;2023-04-07T12:49:11;12.47;;;6.30;;
18170;SDS011;9210;48.358;10.902;2023-04-07T12:51:39;10.83;;;6.13;;
18170;SDS011;9210;48.358;10.902;2023-04-07T12:54:09;10.23;;;6.17;;
18170;SDS011;9210;48.358;10.902;2023-04-07T12:56:37;7.97;;;5.07;;
18170;SDS011;9210;48.358;10.902;2023-04-07T12:59:07;9.80;;;5.33;;
18170;SDS011;9210;48.358;10.902;2023-04-07T13:01:36;9.67;;;5.43;;
18170;SDS011;9210;48.358;10.902;2023-04-07T13:04:08;8.00;;;5.23;;
18170;SDS011;9210;48.358;10.902;2023-04-07T13:06:36;7.73;;;5.40;;
18170;SDS011;9210;48.358;10.902;2023-04-07T13:09:05;7.73;;;4.80;;
18170;SDS011;9210;48.358;10.902;2023-04-07T13:11:35;9.67;;;5.23;;
18170;SDS011;9210;48.358;10.902;2023-04-07T13:14:03;9.30;;;5.37;;
18170;SDS011;9210;48.358;10.902;2023-04-07T13:16:32;8.33;;;4.90;;
18170;SDS011;9210;48.358;10.902;2023-04-07T13:19:01;7.03;;;4.50;;
18170;SDS011;9210;48.358;10.902;2023-04-07T13:21:29;8.57;;;5.30;;
18170;SDS011;9210;48.358;10.902;2023-04-07T13:24:01;8.77;;;5.03;;
18170;SDS011;9210;48.358;10.902;2023-04-07T13:26:29;7.47;;;4.63;;
18170;SDS011;9210;48.358;10.902;2023-04-07T13:28:59;8.87;;;4.67;;
18170;SDS011;9210;48.358;10.902;2023-04-07T13:31:28;8.60;;;4.83;;
18170;SDS011;9210;48.358;10.902;2023-04-07T13:33:56;6.90;;;4.57;;
18170;SDS011;9210;48.358;10.902;2023-04-07T13:36:25;8.40;;;4.90;;
18170;SDS011;9210;48.358;10.902;2023-04-07T13:38:53;7.43;;;4.50;;
18170;SDS011;9210;48.358;10.902;2023-04-07T13:41:22;6.60;;;4.33;;
18170;SDS011;9210;48.358;10.902;2023-04-07T13:43:51;9.67;;;4.73;;
18170;SDS011;9210;48.358;10.902;2023-04-07T13:46:21;9.37;;;5.30;;
18170;SDS011;9210;48.358;10.902;2023-04-07T13:48:54;7.73;;;4.90;;
18170;SDS011;9210;48.358;10.902;2023-04-07T13:51:22;8.77;;;5.43;;
18170;SDS011;9210;48.358;10.902;2023-04-07T13:53:51;7.87;;;5.33;;
18170;SDS011;9210;48.358;10.902;2023-04-07T13:56:19;7.63;;;4.83;;
18170;SDS011;9210;48.358;10.902;2023-04-07T13:58:49;10.13;;;5.57;;
18170;SDS011;9210;48.358;10.902;2023-04-07T14:01:17;9.27;;;4.50;;
18170;SDS011;9210;48.358;10.902;2023-04-07T14:03:47;9.33;;;5.30;;
18170;SDS011;9210;48.358;10.902;2023-04-07T14:06:16;8.90;;;5.07;;
18170;SDS011;9210;48.358;10.902;2023-04-07T14:08:48;8.30;;;5.13;;
18170;SDS011;9210;48.358;10.902;2023-04-07T14:11:16;7.83;;;4.83;;
18170;SDS011;9210;48.358;10.902;2023-04-07T14:13:45;7.47;;;4.60;;
18170;SDS011;9210;48.358;10.902;2023-04-07T14:16:14;9.43;;;4.97;;
18170;SDS011;9210;48.358;10.902;2023-04-07T14:18:42;10.57;;;5.63;;
18170;SDS011;9210;48.358;10.902;2023-04-07T14:21:13;11.03;;;5.73;;
18170;SDS011;9210;48.358;10.902;2023-04-07T14:23:41;8.97;;;5.43;;
18170;SDS011;9210;48.358;10.902;2023-04-07T14:26:10;9.20;;;5.70;;
18170;SDS011;9210;48.358;10.902;2023-04-07T14:28:39;9.93;;;5.53;;
18170;SDS011;9210;48.358;10.902;2023-04-07T14:31:10;9.60;;;5.33;;
18170;SDS011;9210;48.358;10.902;2023-04-07T14:33:39;7.20;;;5.20;;
18170;SDS011;9210;48.358;10.902;2023-04-07T14:36:08;8.30;;;5.60;;
18170;SDS011;9210;48.358;10.902;2023-04-07T14:38:38;7.20;;;4.90;;
18170;SDS011;9210;48.358;10.902;2023-04-07T14:41:07;10.67;;;5.77;;
18170;SDS011;9210;48.358;10.902;2023-04-07T14:43:36;10.47;;;5.70;;
18170;SDS011;9210;48.358;10.902;2023-04-07T14:46:04;11.30;;;6.07;;
18170;SDS011;9210;48.358;10.902;2023-04-07T14:48:33;10.93;;;5.77;;
18170;SDS011;9210;48.358;10.902;2023-04-07T14:51:02;7.47;;;5.07;;
18170;SDS011;9210;48.358;10.902;2023-04-07T14:53:35;7.50;;;4.63;;
18170;SDS011;9210;48.358;10.902;2023-04-07T14:56:05;8.00;;;5.00;;
18170;SDS011;9210;48.358;10.902;2023-04-07T14:58:33;7.27;;;4.40;;
18170;SDS011;9210;48.358;10.902;2023-04-07T15:01:04;6.87;;;4.87;;
18170;SDS011;9210;48.358;10.902;2023-04-07T15:03:33;11.10;;;5.97;;
18170;SDS011;9210;48.358;10.902;2023-04-07T15:06:05;8.37;;;5.67;;
18170;SDS011;9210;48.358;10.902;2023-04-07T15:08:34;8.23;;;5.10;;